createdAt,value
2016-11-27T00:00:57.788Z,77
2016-11-27T00:02:03.769Z,77
2016-11-27T00:03:09.768Z,77
2016-11-27T00:04:15.763Z,77
2016-11-27T00:05:21.766Z,77
2016-11-27T00:06:27.767Z,77
2016-11-27T00:07:33.763Z,77
2016-11-27T00:08:39.773Z,77
2016-11-27T00:09:45.788Z,77
2016-11-27T00:10:51.784Z,77
2016-11-27T00:11:57.781Z,77
2016-11-27T00:13:03.779Z,77
2016-11-27T00:14:09.780Z,77
2016-11-27T00:15:15.780Z,77
2016-11-27T00:16:21.791Z,77
2016-11-27T00:17:27.779Z,77
2016-11-27T00:18:33.786Z,77
2016-11-27T00:19:39.781Z,77
2016-11-27T00:20:45.778Z,77
2016-11-27T00:21:51.768Z,77
2016-11-27T00:22:57.785Z,76
2016-11-27T00:24:03.782Z,76
2016-11-27T00:25:09.973Z,76
2016-11-27T00:26:16.175Z,76
2016-11-27T00:27:22.188Z,76
2016-11-27T00:28:28.179Z,76
2016-11-27T00:29:34.435Z,76
2016-11-27T00:30:40.441Z,76
2016-11-27T00:31:46.510Z,76
2016-11-27T00:32:52.503Z,76
2016-11-27T00:33:58.503Z,76
2016-11-27T00:35:04.507Z,76
2016-11-27T00:36:10.504Z,76
2016-11-27T00:37:16.499Z,76
2016-11-27T00:38:22.503Z,76
2016-11-27T00:39:28.500Z,75
2016-11-27T00:40:34.536Z,75
2016-11-27T00:41:40.528Z,75
2016-11-27T00:42:46.536Z,75
2016-11-27T00:43:52.537Z,75
2016-11-27T00:44:58.545Z,75
2016-11-27T00:46:04.592Z,75
2016-11-27T00:47:10.596Z,75
2016-11-27T00:48:16.594Z,74
2016-11-27T00:49:22.625Z,74
2016-11-27T00:50:36.095Z,74
2016-11-27T00:51:42.090Z,74
2016-11-27T00:52:48.082Z,75
2016-11-27T00:53:54.793Z,75
2016-11-27T00:55:00.493Z,75
2016-11-27T00:56:06.512Z,75
2016-11-27T00:57:12.504Z,75
2016-11-27T00:58:18.517Z,75
2016-11-27T00:59:24.520Z,75
2016-11-27T01:00:30.517Z,75
2016-11-27T01:01:36.511Z,75
2016-11-27T01:02:42.594Z,75
2016-11-27T01:03:48.591Z,75
2016-11-27T01:04:54.598Z,75
2016-11-27T01:06:00.594Z,75
2016-11-27T01:07:06.688Z,74
2016-11-27T01:08:12.682Z,74
2016-11-27T01:09:18.820Z,74
2016-11-27T01:10:24.831Z,74
2016-11-27T01:11:30.830Z,74
2016-11-27T01:12:36.824Z,74
2016-11-27T01:13:42.819Z,74
2016-11-27T01:14:48.818Z,74
2016-11-27T01:15:54.897Z,74
2016-11-27T01:17:00.898Z,74
2016-11-27T01:18:07.100Z,74
2016-11-27T01:19:13.088Z,74
2016-11-27T01:20:19.373Z,74
2016-11-27T01:21:25.373Z,74
2016-11-27T01:22:31.375Z,74
2016-11-27T01:23:37.364Z,74
2016-11-27T01:24:43.372Z,74
2016-11-27T01:25:49.592Z,74
2016-11-27T01:26:55.590Z,74
2016-11-27T01:28:01.591Z,74
2016-11-27T01:29:08.510Z,74
2016-11-27T01:30:13.610Z,74
2016-11-27T01:31:19.606Z,74
2016-11-27T01:32:25.613Z,74
2016-11-27T01:33:31.612Z,74
2016-11-27T01:34:37.606Z,74
2016-11-27T01:35:43.615Z,74
2016-11-27T01:36:49.623Z,73
2016-11-27T01:37:55.616Z,73
2016-11-27T01:39:01.615Z,73
2016-11-27T01:40:07.615Z,73
2016-11-27T01:41:13.619Z,73
2016-11-27T01:42:19.612Z,73
2016-11-27T01:43:25.604Z,73
2016-11-27T01:44:31.766Z,73
2016-11-27T01:45:37.769Z,73
2016-11-27T01:46:44.008Z,73
2016-11-27T01:47:49.896Z,73
2016-11-27T01:48:55.905Z,73
2016-11-27T01:50:01.904Z,73
2016-11-27T01:51:07.899Z,73
2016-11-27T01:52:13.889Z,72
2016-11-27T01:53:19.900Z,72
2016-11-27T01:54:26.006Z,72
2016-11-27T01:55:31.975Z,72
2016-11-27T01:56:37.984Z,72
2016-11-27T01:57:43.986Z,72
2016-11-27T01:58:49.982Z,72
2016-11-27T01:59:55.976Z,72
2016-11-27T02:01:01.974Z,72
2016-11-27T02:02:08.062Z,72
2016-11-27T02:03:14.062Z,72
2016-11-27T02:04:20.068Z,72
2016-11-27T02:05:26.067Z,71
2016-11-27T02:06:32.066Z,71
2016-11-27T02:07:38.105Z,71
2016-11-27T02:09:54.226Z,71
2016-11-27T02:11:00.545Z,71
2016-11-27T02:12:06.374Z,71
2016-11-27T02:13:12.375Z,71
2016-11-27T02:14:18.374Z,71
2016-11-27T02:15:24.376Z,71
2016-11-27T02:16:30.370Z,71
2016-11-27T02:17:36.368Z,71
2016-11-27T02:18:42.369Z,71
2016-11-27T02:19:48.366Z,71
2016-11-27T02:20:54.364Z,71
2016-11-27T02:22:00.366Z,70
2016-11-27T02:23:06.362Z,70
2016-11-27T02:24:12.360Z,70
2016-11-27T02:25:18.354Z,70
2016-11-27T02:26:24.555Z,70
2016-11-27T02:27:30.554Z,70
2016-11-27T02:28:36.551Z,70
2016-11-27T02:29:42.558Z,70
2016-11-27T02:30:48.563Z,70
2016-11-27T02:31:54.556Z,70
2016-11-27T02:33:00.550Z,70
2016-11-27T02:34:06.547Z,70
2016-11-27T02:35:12.554Z,70
2016-11-27T02:36:18.545Z,70
2016-11-27T02:37:24.542Z,70
2016-11-27T02:38:30.534Z,70
2016-11-27T02:39:36.540Z,70
2016-11-27T02:40:42.533Z,70
2016-11-27T02:41:56.001Z,70
2016-11-27T02:43:01.999Z,70
2016-11-27T02:44:07.995Z,70
2016-11-27T02:45:14.001Z,71
2016-11-27T02:46:20.001Z,71
2016-11-27T02:47:26.004Z,71
2016-11-27T02:48:31.999Z,71
2016-11-27T02:49:37.999Z,71
2016-11-27T02:50:44.003Z,71
2016-11-27T02:51:49.998Z,71
2016-11-27T02:52:55.993Z,71
2016-11-27T02:54:01.994Z,71
2016-11-27T02:55:07.993Z,71
2016-11-27T02:56:13.989Z,71
2016-11-27T02:57:19.984Z,71
2016-11-27T02:58:25.990Z,71
2016-11-27T02:59:31.983Z,71
2016-11-27T03:00:37.979Z,71
2016-11-27T03:01:51.453Z,71
2016-11-27T03:02:57.451Z,71
2016-11-27T03:04:03.449Z,71
2016-11-27T03:05:09.456Z,71
2016-11-27T03:06:15.452Z,71
2016-11-27T03:07:21.456Z,71
2016-11-27T03:08:27.454Z,71
2016-11-27T03:09:33.453Z,71
2016-11-27T03:10:39.460Z,71
2016-11-27T03:11:45.450Z,71
2016-11-27T03:12:51.445Z,71
2016-11-27T03:13:57.446Z,71
2016-11-27T03:15:03.440Z,71
2016-11-27T03:16:09.438Z,71
2016-11-27T03:17:15.432Z,71
2016-11-27T03:18:21.432Z,71
2016-11-27T03:19:27.430Z,71
2016-11-27T03:20:33.428Z,71
2016-11-27T03:21:39.437Z,71
2016-11-27T03:22:45.439Z,71
2016-11-27T03:23:51.438Z,71
2016-11-27T03:24:57.429Z,71
2016-11-27T03:26:03.429Z,71
2016-11-27T03:27:09.432Z,71
2016-11-27T03:28:15.427Z,71
2016-11-27T03:29:21.425Z,71
2016-11-27T03:30:27.419Z,71
2016-11-27T03:31:33.429Z,71
2016-11-27T03:32:39.425Z,71
2016-11-27T03:33:45.427Z,71
2016-11-27T03:34:51.419Z,71
2016-11-27T03:35:57.428Z,71
2016-11-27T03:37:03.423Z,71
2016-11-27T03:38:09.420Z,71
2016-11-27T03:39:15.424Z,71
2016-11-27T03:40:21.429Z,71
2016-11-27T03:41:27.421Z,71
2016-11-27T03:42:33.420Z,71
2016-11-27T03:43:39.428Z,71
2016-11-27T03:44:45.422Z,71
2016-11-27T03:45:51.423Z,71
2016-11-27T03:46:57.418Z,71
2016-11-27T03:48:03.424Z,71
2016-11-27T03:49:09.424Z,71
2016-11-27T03:50:15.422Z,71
2016-11-27T03:51:21.419Z,71
2016-11-27T03:52:27.423Z,71
2016-11-27T03:53:33.429Z,71
2016-11-27T03:54:39.416Z,71
2016-11-27T03:55:45.426Z,71
2016-11-27T03:56:51.431Z,71
2016-11-27T03:57:57.429Z,71
2016-11-27T03:59:03.426Z,71
2016-11-27T04:00:09.434Z,71
2016-11-27T04:01:15.430Z,71
2016-11-27T04:02:21.429Z,71
2016-11-27T04:03:27.416Z,71
2016-11-27T04:04:33.428Z,71
2016-11-27T04:05:39.420Z,71
2016-11-27T04:06:45.417Z,71
2016-11-27T04:07:51.426Z,71
2016-11-27T04:08:57.427Z,71
2016-11-27T04:10:03.427Z,71
2016-11-27T04:11:09.422Z,71
2016-11-27T04:12:15.419Z,71
2016-11-27T04:13:21.417Z,71
2016-11-27T04:14:27.416Z,71
2016-11-27T04:15:33.421Z,71
2016-11-27T04:17:49.537Z,71
2016-11-27T04:18:55.539Z,71
2016-11-27T04:20:01.533Z,71
2016-11-27T04:21:07.540Z,71
2016-11-27T04:22:13.535Z,71
2016-11-27T04:23:19.540Z,71
2016-11-27T04:24:25.536Z,71
2016-11-27T04:25:31.540Z,71
2016-11-27T04:26:37.539Z,71
2016-11-27T04:27:43.533Z,71
2016-11-27T04:28:49.530Z,71
2016-11-27T04:29:55.530Z,71
2016-11-27T04:31:01.527Z,71
2016-11-27T04:32:07.524Z,71
2016-11-27T04:33:13.517Z,71
2016-11-27T04:34:19.519Z,71
2016-11-27T04:35:25.515Z,71
2016-11-27T04:36:31.508Z,71
2016-11-27T04:37:37.518Z,71
2016-11-27T04:38:43.521Z,71
2016-11-27T04:39:49.520Z,71
2016-11-27T04:40:55.514Z,71
2016-11-27T04:42:01.512Z,71
2016-11-27T04:43:07.511Z,71
2016-11-27T04:44:13.505Z,71
2016-11-27T04:45:19.505Z,71
2016-11-27T04:46:25.501Z,71
2016-11-27T04:47:31.507Z,71
2016-11-27T04:48:37.503Z,72
2016-11-27T04:49:49.875Z,72
2016-11-27T04:50:55.874Z,72
2016-11-27T04:52:01.866Z,72
2016-11-27T04:53:07.123Z,72
2016-11-27T04:55:24.343Z,72
2016-11-27T04:56:30.338Z,72
2016-11-27T04:57:36.329Z,72
2016-11-27T04:58:42.336Z,72
2016-11-27T04:59:48.333Z,72
2016-11-27T05:00:54.334Z,72
2016-11-27T05:02:00.327Z,72
2016-11-27T05:03:06.324Z,72
2016-11-27T05:04:12.325Z,72
2016-11-27T05:05:18.317Z,72
2016-11-27T05:06:24.317Z,72
2016-11-27T05:07:30.317Z,72
2016-11-27T05:08:36.410Z,72
2016-11-27T05:09:42.408Z,72
2016-11-27T05:10:48.402Z,72
2016-11-27T05:11:54.403Z,72
2016-11-27T05:13:00.398Z,72
2016-11-27T05:14:06.395Z,72
2016-11-27T05:15:12.405Z,72
2016-11-27T05:16:18.407Z,72
2016-11-27T05:17:24.403Z,72
2016-11-27T05:18:30.397Z,73
2016-11-27T05:19:36.389Z,73
2016-11-27T05:20:42.390Z,73
2016-11-27T05:21:48.386Z,73
2016-11-27T05:22:54.388Z,73
2016-11-27T05:24:00.380Z,73
2016-11-27T05:25:06.383Z,73
2016-11-27T05:26:12.381Z,73
2016-11-27T05:27:18.382Z,73
2016-11-27T05:28:24.378Z,73
2016-11-27T05:29:30.383Z,73
2016-11-27T05:30:36.379Z,73
2016-11-27T05:31:42.377Z,73
2016-11-27T05:32:48.377Z,73
2016-11-27T05:33:54.382Z,73
2016-11-27T05:35:00.375Z,73
2016-11-27T05:36:06.378Z,73
2016-11-27T05:37:12.381Z,73
2016-11-27T05:38:18.375Z,73
2016-11-27T05:39:24.375Z,73
2016-11-27T05:40:29.621Z,73
2016-11-27T05:41:35.629Z,73
2016-11-27T05:42:41.624Z,73
2016-11-27T05:43:47.619Z,73
2016-11-27T05:44:52.517Z,73
2016-11-27T05:45:58.517Z,73
2016-11-27T05:47:04.512Z,73
2016-11-27T05:48:10.504Z,73
2016-11-27T05:49:16.516Z,73
2016-11-27T05:50:22.518Z,73
2016-11-27T05:51:28.517Z,73
2016-11-27T05:52:34.513Z,73
2016-11-27T05:53:40.523Z,73
2016-11-27T05:54:46.520Z,73
2016-11-27T05:55:52.520Z,73
2016-11-27T05:56:58.509Z,73
2016-11-27T05:58:04.520Z,73
2016-11-27T05:59:10.512Z,73
2016-11-27T06:00:16.507Z,73
2016-11-27T06:01:22.516Z,74
2016-11-27T06:02:28.519Z,74
2016-11-27T06:03:34.516Z,73
2016-11-27T06:04:40.509Z,74
2016-11-27T06:05:46.505Z,74
2016-11-27T06:06:52.505Z,74
2016-11-27T06:07:58.498Z,74
2016-11-27T06:09:04.500Z,74
2016-11-27T06:10:10.496Z,74
2016-11-27T06:11:16.492Z,75
2016-11-27T06:12:22.489Z,75
2016-11-27T06:13:28.486Z,75
2016-11-27T06:14:34.485Z,75
2016-11-27T06:15:40.490Z,75
2016-11-27T06:16:46.486Z,75
2016-11-27T06:17:52.482Z,75
2016-11-27T06:18:58.482Z,75
2016-11-27T06:20:04.485Z,75
2016-11-27T06:21:10.482Z,75
2016-11-27T06:22:16.481Z,75
2016-11-27T06:23:22.484Z,75
2016-11-27T06:24:28.484Z,75
2016-11-27T06:25:34.482Z,75
2016-11-27T06:26:40.477Z,75
2016-11-27T06:27:46.482Z,75
2016-11-27T06:28:52.487Z,75
2016-11-27T06:29:58.488Z,75
2016-11-27T06:31:04.490Z,75
2016-11-27T06:32:09.749Z,76
2016-11-27T06:33:15.746Z,76
2016-11-27T06:34:21.747Z,76
2016-11-27T06:35:27.746Z,75
2016-11-27T06:36:33.741Z,76
2016-11-27T06:37:39.744Z,76
2016-11-27T06:38:45.745Z,76
2016-11-27T06:39:51.744Z,76
2016-11-27T06:40:57.744Z,76
2016-11-27T06:42:03.734Z,76
2016-11-27T06:43:09.741Z,76
2016-11-27T06:44:15.744Z,76
2016-11-27T06:45:21.740Z,76
2016-11-27T06:46:27.736Z,76
2016-11-27T06:47:33.733Z,76
2016-11-27T06:48:39.733Z,76
2016-11-27T06:49:45.731Z,76
2016-11-27T06:50:51.730Z,76
2016-11-27T06:51:57.730Z,76
2016-11-27T06:53:03.741Z,76
2016-11-27T06:54:09.738Z,76
2016-11-27T06:55:15.736Z,76
2016-11-27T06:56:21.727Z,76
2016-11-27T06:57:27.728Z,76
2016-11-27T06:58:33.729Z,76
2016-11-27T06:59:39.726Z,76
2016-11-27T07:00:45.718Z,76
2016-11-27T07:01:51.717Z,76
2016-11-27T07:02:57.719Z,76
2016-11-27T07:04:03.719Z,76
2016-11-27T07:05:09.722Z,77
2016-11-27T07:06:15.712Z,77
2016-11-27T07:07:21.710Z,77
2016-11-27T07:08:27.701Z,77
2016-11-27T07:09:33.710Z,77
2016-11-27T07:10:39.701Z,77
2016-11-27T07:11:45.705Z,77
2016-11-27T07:12:51.704Z,77
2016-11-27T07:13:57.710Z,77
2016-11-27T07:15:03.701Z,77
2016-11-27T07:16:09.695Z,77
2016-11-27T07:17:15.703Z,77
2016-11-27T07:18:21.707Z,77
2016-11-27T07:19:27.710Z,77
2016-11-27T07:20:33.702Z,77
2016-11-27T07:21:39.701Z,77
2016-11-27T07:22:45.702Z,77
2016-11-27T07:23:58.068Z,77
2016-11-27T07:25:04.063Z,77
2016-11-27T07:26:10.062Z,77
2016-11-27T07:27:16.066Z,77
2016-11-27T07:28:22.062Z,77
2016-11-27T07:29:28.067Z,77
2016-11-27T07:30:34.059Z,77
2016-11-27T07:31:40.065Z,77
2016-11-27T07:32:46.069Z,77
2016-11-27T07:33:52.062Z,77
2016-11-27T07:34:58.056Z,77
2016-11-27T07:36:04.057Z,77
2016-11-27T07:37:10.056Z,77
2016-11-27T07:38:16.052Z,77
2016-11-27T07:39:22.046Z,77
2016-11-27T07:40:28.046Z,77
2016-11-27T07:41:34.040Z,77
2016-11-27T07:42:40.039Z,77
2016-11-27T07:43:46.046Z,77
2016-11-27T07:44:52.048Z,77
2016-11-27T07:45:58.044Z,77
2016-11-27T07:47:04.041Z,77
2016-11-27T07:48:10.041Z,77
2016-11-27T07:49:16.037Z,77
2016-11-27T07:50:22.034Z,77
2016-11-27T07:51:28.034Z,77
2016-11-27T07:53:45.245Z,77
2016-11-27T07:54:51.243Z,77
2016-11-27T07:55:57.234Z,77
2016-11-27T07:57:03.238Z,77
2016-11-27T07:58:09.241Z,77
2016-11-27T07:59:15.241Z,77
2016-11-27T08:00:21.238Z,77
2016-11-27T08:01:27.239Z,77
2016-11-27T08:02:33.236Z,77
2016-11-27T08:03:39.231Z,77
2016-11-27T08:04:45.223Z,77
2016-11-27T08:05:51.227Z,77
2016-11-27T08:06:57.224Z,77
2016-11-27T08:08:03.222Z,77
2016-11-27T08:09:09.215Z,77
2016-11-27T08:10:15.214Z,77
2016-11-27T08:11:21.213Z,77
2016-11-27T08:12:27.212Z,77
2016-11-27T08:13:33.218Z,77
2016-11-27T08:14:39.219Z,77
2016-11-27T08:15:45.218Z,77
2016-11-27T08:16:51.210Z,77
2016-11-27T08:17:57.215Z,77
2016-11-27T08:19:03.221Z,77
2016-11-27T08:20:09.218Z,77
2016-11-27T08:21:15.214Z,77
2016-11-27T08:22:21.206Z,77
2016-11-27T08:23:27.212Z,76
2016-11-27T08:25:44.432Z,76
2016-11-27T08:26:50.426Z,76
2016-11-27T08:27:56.423Z,75
2016-11-27T08:29:02.425Z,74
2016-11-27T08:30:08.425Z,74
2016-11-27T08:31:14.425Z,74
2016-11-27T08:32:20.424Z,74
2016-11-27T08:33:26.423Z,74
2016-11-27T08:34:39.896Z,74
2016-11-27T08:35:45.891Z,74
2016-11-27T08:36:51.886Z,73
2016-11-27T08:37:57.890Z,73
2016-11-27T08:39:03.887Z,73
2016-11-27T08:40:09.889Z,73
2016-11-27T08:41:15.883Z,73
2016-11-27T08:42:21.882Z,73
2016-11-27T08:43:27.884Z,73
2016-11-27T08:44:33.881Z,73
2016-11-27T08:45:39.876Z,73
2016-11-27T08:46:45.877Z,73
2016-11-27T08:47:51.876Z,73
2016-11-27T08:48:57.874Z,73
2016-11-27T08:50:03.874Z,73
2016-11-27T08:52:21.096Z,73
2016-11-27T08:53:27.098Z,73
2016-11-27T08:54:33.092Z,73
2016-11-27T08:55:39.098Z,72
2016-11-27T08:56:45.097Z,72
2016-11-27T08:57:51.102Z,72
2016-11-27T08:58:57.106Z,72
2016-11-27T09:00:02.367Z,71
2016-11-27T09:01:08.373Z,71
2016-11-27T09:02:14.369Z,71
2016-11-27T09:03:20.366Z,71
2016-11-27T09:04:26.367Z,71
2016-11-27T09:05:32.365Z,71
2016-11-27T09:06:38.364Z,71
2016-11-27T09:07:44.362Z,71
2016-11-27T09:08:50.364Z,71
2016-11-27T09:09:56.364Z,71
2016-11-27T09:11:02.366Z,69
2016-11-27T09:12:08.373Z,69
2016-11-27T09:13:14.373Z,69
2016-11-27T09:14:20.373Z,69
2016-11-27T09:15:26.373Z,69
2016-11-27T09:16:32.374Z,69
2016-11-27T09:17:38.372Z,69
2016-11-27T09:18:44.370Z,69
2016-11-27T09:19:50.576Z,69
2016-11-27T09:20:56.569Z,69
2016-11-27T09:22:02.583Z,68
2016-11-27T09:23:08.581Z,68
2016-11-27T09:24:14.576Z,68
2016-11-27T09:25:20.568Z,68
2016-11-27T09:26:26.574Z,67
2016-11-27T09:27:32.575Z,66
2016-11-27T09:28:38.571Z,66
2016-11-27T09:29:44.574Z,66
2016-11-27T09:30:50.584Z,66
2016-11-27T09:31:56.576Z,66
2016-11-27T09:33:02.577Z,65
2016-11-27T09:34:08.786Z,65
2016-11-27T09:35:14.778Z,64
2016-11-27T09:36:20.775Z,64
2016-11-27T09:37:26.771Z,64
2016-11-27T09:38:32.780Z,64
2016-11-27T09:39:46.261Z,64
2016-11-27T09:40:52.254Z,63
2016-11-27T09:41:58.263Z,63
2016-11-27T09:43:04.265Z,63
2016-11-27T09:44:10.266Z,62
2016-11-27T09:45:16.272Z,62
2016-11-27T09:46:22.267Z,62
2016-11-27T09:47:28.262Z,62
2016-11-27T09:48:34.265Z,61
2016-11-27T09:49:40.303Z,61
2016-11-27T09:50:46.391Z,61
2016-11-27T09:51:52.414Z,61
2016-11-27T09:52:58.410Z,59
2016-11-27T09:54:04.410Z,59
2016-11-27T09:55:10.408Z,57
2016-11-27T09:56:16.412Z,56
2016-11-27T09:57:22.409Z,56
2016-11-27T09:58:28.411Z,56
2016-11-27T09:59:34.424Z,56
2016-11-27T10:00:40.436Z,56
2016-11-27T10:01:46.436Z,56
2016-11-27T10:02:52.426Z,56
2016-11-27T10:03:58.423Z,56
2016-11-27T10:05:04.427Z,56
2016-11-27T10:06:10.436Z,56
2016-11-27T10:07:16.432Z,56
2016-11-27T10:08:22.440Z,56
2016-11-27T10:09:28.454Z,55
2016-11-27T10:10:34.455Z,55
2016-11-27T10:11:40.458Z,55
2016-11-27T10:12:46.452Z,55
2016-11-27T10:13:52.458Z,55
2016-11-27T10:14:58.613Z,55
2016-11-27T10:16:04.708Z,54
2016-11-27T10:17:10.713Z,54
2016-11-27T10:18:16.721Z,54
2016-11-27T10:19:22.720Z,54
2016-11-27T10:20:28.723Z,54
2016-11-27T10:21:34.727Z,54
2016-11-27T10:22:40.726Z,54
2016-11-27T10:23:46.725Z,54
2016-11-27T10:24:52.724Z,54
2016-11-27T10:25:58.734Z,54
2016-11-27T10:27:04.759Z,54
2016-11-27T10:28:10.754Z,53
2016-11-27T10:29:16.755Z,53
2016-11-27T10:30:22.763Z,52
2016-11-27T10:32:38.943Z,51
2016-11-27T10:33:44.914Z,52
2016-11-27T10:34:50.914Z,51
2016-11-27T10:35:56.915Z,52
2016-11-27T10:37:02.923Z,51
2016-11-27T10:38:08.927Z,51
2016-11-27T10:39:14.991Z,51
2016-11-27T10:40:20.958Z,51
2016-11-27T10:41:26.969Z,51
2016-11-27T10:42:32.969Z,51
2016-11-27T10:44:46.607Z,50
2016-11-27T10:45:52.608Z,50
2016-11-27T10:47:06.645Z,50
2016-11-27T10:48:10.673Z,49
2016-11-27T10:49:16.673Z,48
2016-11-27T10:50:29.073Z,47
2016-11-27T10:51:35.073Z,45
2016-11-27T10:52:41.072Z,43
2016-11-27T10:53:47.086Z,41
2016-11-27T10:54:53.088Z,39
2016-11-27T10:55:59.091Z,38
2016-11-27T10:57:05.092Z,37
2016-11-27T10:58:11.095Z,36
2016-11-27T10:59:17.103Z,36
2016-11-27T11:00:23.100Z,31
2016-11-27T11:01:29.101Z,28
2016-11-27T11:02:35.105Z,25
2016-11-27T11:03:41.102Z,25
2016-11-27T11:04:47.101Z,25
2016-11-27T11:05:53.101Z,25
2016-11-27T11:06:59.103Z,25
2016-11-27T11:08:05.104Z,25
2016-11-27T11:09:11.105Z,25
2016-11-27T11:10:17.116Z,25
2016-11-27T11:11:23.117Z,25
2016-11-27T11:12:29.116Z,25
2016-11-27T11:13:35.115Z,25
2016-11-27T11:14:41.112Z,25
2016-11-27T11:15:47.110Z,25
2016-11-27T11:16:53.112Z,25
2016-11-27T11:17:59.118Z,25
2016-11-27T11:19:05.114Z,25
2016-11-27T11:20:11.124Z,25
2016-11-27T11:21:17.127Z,25
2016-11-27T11:22:23.128Z,25
2016-11-27T11:23:29.132Z,25
2016-11-27T11:24:35.138Z,25
2016-11-27T11:25:41.138Z,25
2016-11-27T11:26:47.138Z,25
2016-11-27T11:29:00.785Z,25
2016-11-27T11:30:06.789Z,25
2016-11-27T11:31:12.788Z,25
2016-11-27T11:32:18.795Z,25
2016-11-27T11:33:24.793Z,25
2016-11-27T11:34:30.801Z,25
2016-11-27T11:35:36.802Z,25
2016-11-27T11:36:42.807Z,25
2016-11-27T11:37:48.812Z,25
2016-11-27T11:38:54.809Z,25
2016-11-27T11:40:00.807Z,25
2016-11-27T11:41:06.815Z,24
2016-11-27T11:42:12.817Z,25
2016-11-27T11:43:18.815Z,25
2016-11-27T11:44:24.812Z,25
2016-11-27T11:45:30.819Z,25
2016-11-27T11:46:36.817Z,25
2016-11-27T11:47:42.814Z,25
2016-11-27T11:48:48.825Z,25
2016-11-27T11:49:54.827Z,25
2016-11-27T11:51:00.826Z,25
2016-11-27T11:52:07.025Z,25
2016-11-27T11:53:13.024Z,25
2016-11-27T11:54:19.023Z,25
2016-11-27T11:55:25.026Z,25
2016-11-27T11:56:31.030Z,25
2016-11-27T11:57:37.025Z,25
2016-11-27T11:58:43.035Z,25
2016-11-27T11:59:49.036Z,25
2016-11-27T12:00:55.037Z,25
2016-11-27T12:02:01.051Z,24
2016-11-27T12:03:07.052Z,25
2016-11-27T12:04:13.054Z,25
2016-11-27T12:05:19.055Z,25
2016-11-27T12:06:25.060Z,25
2016-11-27T12:07:31.068Z,25
2016-11-27T12:08:37.066Z,25
2016-11-27T12:09:43.069Z,25
2016-11-27T12:10:49.080Z,25
2016-11-27T12:11:55.076Z,25
2016-11-27T12:13:01.073Z,25
2016-11-27T12:14:07.070Z,25
2016-11-27T12:15:13.081Z,25
2016-11-27T12:16:19.079Z,25
2016-11-27T12:17:25.076Z,25
2016-11-27T12:18:31.082Z,25
2016-11-27T12:19:37.083Z,25
2016-11-27T12:20:43.083Z,25
2016-11-27T12:21:49.087Z,25
2016-11-27T12:22:55.094Z,25
2016-11-27T12:24:01.099Z,25
2016-11-27T12:25:07.108Z,25
2016-11-27T12:26:13.107Z,25
2016-11-27T12:27:19.116Z,25
2016-11-27T12:28:25.116Z,25
2016-11-27T12:29:31.117Z,25
2016-11-27T12:30:37.108Z,25
2016-11-27T12:31:43.119Z,25
2016-11-27T12:32:49.122Z,25
2016-11-27T12:33:55.121Z,25
2016-11-27T12:35:01.131Z,25
2016-11-27T12:36:07.138Z,25
2016-11-27T12:37:13.136Z,25
2016-11-27T12:38:19.134Z,25
2016-11-27T12:39:25.144Z,25
2016-11-27T12:41:39.886Z,25
2016-11-27T12:42:45.892Z,29
2016-11-27T12:43:51.889Z,31
2016-11-27T12:44:57.891Z,29
2016-11-27T12:46:03.891Z,37
2016-11-27T12:47:09.896Z,37
2016-11-27T12:48:15.895Z,37
2016-11-27T12:49:21.902Z,37
2016-11-27T12:50:27.906Z,37
2016-11-27T12:51:33.902Z,37
2016-11-27T12:52:39.899Z,38
2016-11-27T12:53:45.903Z,38
2016-11-27T12:54:51.904Z,39
2016-11-27T12:55:58.104Z,38
2016-11-27T12:57:04.105Z,38
2016-11-27T12:58:10.105Z,37
2016-11-27T12:59:16.105Z,36
2016-11-27T13:00:22.102Z,36
2016-11-27T13:01:28.117Z,36
2016-11-27T13:02:33.378Z,32
2016-11-27T13:03:39.378Z,31
2016-11-27T13:04:45.380Z,37
2016-11-27T13:05:51.384Z,38
2016-11-27T13:06:57.389Z,38
2016-11-27T13:08:03.388Z,39
2016-11-27T13:09:09.394Z,40
2016-11-27T13:10:15.393Z,40
2016-11-27T13:11:21.403Z,42
2016-11-27T13:12:27.400Z,43
2016-11-27T13:13:33.401Z,44
2016-11-27T13:15:50.646Z,46
2016-11-27T13:16:56.651Z,46
2016-11-27T13:18:02.656Z,47
2016-11-27T13:19:08.655Z,47
2016-11-27T13:20:14.657Z,48
2016-11-27T13:21:20.659Z,48
2016-11-27T13:22:34.147Z,48
2016-11-27T13:23:40.153Z,49
2016-11-27T13:24:46.160Z,49
2016-11-27T13:25:58.546Z,49
2016-11-27T13:27:04.551Z,49
2016-11-27T13:28:10.558Z,49
2016-11-27T13:29:16.558Z,49
2016-11-27T13:30:22.563Z,49
2016-11-27T13:31:28.567Z,49
2016-11-27T13:32:34.569Z,50
2016-11-27T13:33:40.578Z,50
2016-11-27T13:34:46.583Z,50
2016-11-27T13:35:52.586Z,50
2016-11-27T13:36:58.579Z,51
2016-11-27T13:38:04.583Z,51
2016-11-27T13:39:10.582Z,51
2016-11-27T13:40:16.581Z,51
2016-11-27T13:41:22.578Z,50
2016-11-27T13:42:28.584Z,50
2016-11-27T13:43:34.583Z,50
2016-11-27T13:44:40.578Z,50
2016-11-27T13:45:46.589Z,50
2016-11-27T13:48:00.213Z,50
2016-11-27T13:49:06.215Z,49
2016-11-27T13:50:12.218Z,49
2016-11-27T13:51:18.215Z,50
2016-11-27T13:52:24.214Z,50
2016-11-27T13:53:30.217Z,50
2016-11-27T13:54:36.215Z,50
2016-11-27T13:55:42.212Z,50
2016-11-27T13:56:48.217Z,50
2016-11-27T13:57:54.218Z,50
2016-11-27T13:59:00.219Z,50
2016-11-27T14:00:06.219Z,51
2016-11-27T14:01:12.218Z,51
2016-11-27T14:02:18.216Z,51
2016-11-27T14:03:24.213Z,51
2016-11-27T14:04:30.211Z,51
2016-11-27T14:05:36.209Z,51
2016-11-27T14:06:42.207Z,51
2016-11-27T14:07:48.218Z,51
2016-11-27T14:08:54.220Z,51
2016-11-27T14:10:00.216Z,51
2016-11-27T14:11:06.214Z,52
2016-11-27T14:12:12.214Z,52
2016-11-27T14:13:18.217Z,52
2016-11-27T14:14:24.214Z,52
2016-11-27T14:15:30.218Z,52
2016-11-27T14:16:36.209Z,52
2016-11-27T14:17:42.215Z,52
2016-11-27T14:18:48.214Z,52
2016-11-27T14:20:01.694Z,52
2016-11-27T14:21:07.695Z,53
2016-11-27T14:22:13.699Z,53
2016-11-27T14:23:19.696Z,53
2016-11-27T14:24:25.695Z,53
2016-11-27T14:25:31.697Z,53
2016-11-27T14:26:37.694Z,52
2016-11-27T14:27:43.698Z,52
2016-11-27T14:28:49.701Z,52
2016-11-27T14:29:55.701Z,52
2016-11-27T14:31:01.702Z,52
2016-11-27T14:32:07.705Z,52
2016-11-27T14:33:13.704Z,52
2016-11-27T14:34:19.700Z,52
2016-11-27T14:35:25.693Z,52
2016-11-27T14:36:31.693Z,52
2016-11-27T14:37:37.694Z,52
2016-11-27T14:38:43.692Z,51
2016-11-27T14:39:49.701Z,51
2016-11-27T14:40:55.704Z,51
2016-11-27T14:42:01.699Z,51
2016-11-27T14:43:07.698Z,51
2016-11-27T14:44:13.697Z,51
2016-11-27T14:45:19.699Z,51
2016-11-27T14:46:25.698Z,52
2016-11-27T14:47:31.701Z,52
2016-11-27T14:48:37.695Z,52
2016-11-27T14:49:43.701Z,52
2016-11-27T14:50:49.700Z,52
2016-11-27T14:51:55.699Z,52
2016-11-27T14:53:01.695Z,52
2016-11-27T14:54:07.702Z,52
2016-11-27T14:55:13.700Z,52
2016-11-27T14:56:19.700Z,52
2016-11-27T14:57:25.704Z,52
2016-11-27T14:58:31.712Z,52
2016-11-27T14:59:37.706Z,52
2016-11-27T15:00:43.707Z,52
2016-11-27T15:01:49.712Z,52
2016-11-27T15:02:55.701Z,52
2016-11-27T15:04:01.697Z,52
2016-11-27T15:05:07.695Z,52
2016-11-27T15:06:13.697Z,52
2016-11-27T15:07:19.692Z,52
2016-11-27T15:09:36.910Z,52
2016-11-27T15:10:42.908Z,52
2016-11-27T15:11:48.912Z,52
2016-11-27T15:12:54.908Z,52
2016-11-27T15:14:00.909Z,52
2016-11-27T15:15:06.909Z,52
2016-11-27T15:16:12.905Z,52
2016-11-27T15:17:18.909Z,52
2016-11-27T15:18:24.910Z,52
2016-11-27T15:19:30.908Z,52
2016-11-27T15:20:36.908Z,52
2016-11-27T15:21:42.909Z,52
2016-11-27T15:22:48.907Z,52
2016-11-27T15:23:54.905Z,52
2016-11-27T15:25:00.903Z,52
2016-11-27T15:26:06.901Z,52
2016-11-27T15:27:12.902Z,52
2016-11-27T15:28:18.899Z,52
2016-11-27T15:29:24.911Z,52
2016-11-27T15:30:30.172Z,52
2016-11-27T15:31:36.171Z,52
2016-11-27T15:32:42.173Z,52
2016-11-27T15:33:48.167Z,52
2016-11-27T15:34:54.173Z,52
2016-11-27T15:36:00.171Z,52
2016-11-27T15:37:06.175Z,52
2016-11-27T15:38:12.166Z,52
2016-11-27T15:39:18.175Z,53
2016-11-27T15:40:24.173Z,53
2016-11-27T15:41:30.172Z,53
2016-11-27T15:42:36.168Z,53
2016-11-27T15:43:42.176Z,53
2016-11-27T15:44:48.174Z,53
2016-11-27T15:45:54.173Z,53
2016-11-27T15:47:00.174Z,53
2016-11-27T15:48:06.185Z,53
2016-11-27T15:49:12.183Z,53
2016-11-27T15:50:18.181Z,53
2016-11-27T15:51:24.187Z,53
2016-11-27T15:52:30.178Z,53
2016-11-27T15:53:36.176Z,53
2016-11-27T15:54:42.177Z,53
2016-11-27T15:55:48.180Z,53
2016-11-27T15:56:54.175Z,53
2016-11-27T15:58:00.174Z,53